createdAt,value
2022-07-27T00:00:38.181Z,0.00
2022-07-27T00:01:38.074Z,0.00
2022-07-27T00:02:38.062Z,0.00
2022-07-27T00:03:38.051Z,0.00
2022-07-27T00:04:38.191Z,0.00
2022-07-27T00:05:38.030Z,0.00
2022-07-27T00:06:38.024Z,0.00
2022-07-27T00:07:38.009Z,0.00
2022-07-27T00:08:38.002Z,0.00
2022-07-27T00:09:37.987Z,0.00
2022-07-27T00:10:37.982Z,0.00
2022-07-27T00:11:37.965Z,0.00
2022-07-27T00:12:37.953Z,0.00
2022-07-27T00:13:37.945Z,0.00
2022-07-27T00:14:37.933Z,0.00
2022-07-27T00:15:37.922Z,0.00
2022-07-27T00:16:38.004Z,0.00
2022-07-27T00:17:37.898Z,0.00
2022-07-27T00:18:37.894Z,0.00
2022-07-27T00:19:37.878Z,0.00
2022-07-27T00:20:37.866Z,0.00
2022-07-27T00:21:44.552Z,0.00
2022-07-27T00:22:38.849Z,0.00
2022-07-27T00:23:37.833Z,0.00
2022-07-27T00:24:37.823Z,0.00
2022-07-27T00:25:37.813Z,0.00
2022-07-27T00:26:37.801Z,0.00
2022-07-27T00:27:37.791Z,0.00
2022-07-27T00:28:37.793Z,0.00
2022-07-27T00:29:37.769Z,0.00
2022-07-27T00:30:37.757Z,0.00
2022-07-27T00:31:37.822Z,0.00
2022-07-27T00:32:37.736Z,0.00
2022-07-27T00:33:37.775Z,0.00
2022-07-27T00:34:37.735Z,0.00
2022-07-27T00:35:37.702Z,0.00
2022-07-27T00:36:37.692Z,0.00
2022-07-27T00:37:37.680Z,0.00
2022-07-27T00:38:37.670Z,0.00
2022-07-27T00:39:37.661Z,0.00
2022-07-27T00:40:37.654Z,0.00
2022-07-27T00:41:37.639Z,0.00
2022-07-27T00:42:37.628Z,0.00
2022-07-27T00:43:37.627Z,0.00
2022-07-27T00:44:37.604Z,0.00
2022-07-27T00:45:37.595Z,0.00
2022-07-27T00:46:37.666Z,0.00
2022-07-27T00:47:37.571Z,0.00
2022-07-27T00:48:37.608Z,0.00
2022-07-27T00:49:37.552Z,0.00
2022-07-27T00:50:37.538Z,0.00
2022-07-27T00:51:37.528Z,0.00
2022-07-27T00:52:37.526Z,0.00
2022-07-27T00:53:37.514Z,0.00
2022-07-27T00:54:37.496Z,0.00
2022-07-27T00:55:37.488Z,0.00
2022-07-27T00:56:37.475Z,0.00
2022-07-27T00:57:58.423Z,0.00
2022-07-27T00:58:38.488Z,0.00
2022-07-27T00:59:37.442Z,0.00
2022-07-27T01:00:37.431Z,0.00
2022-07-27T01:01:37.538Z,0.00
2022-07-27T01:02:37.548Z,0.00
2022-07-27T01:03:38.396Z,0.00
2022-07-27T01:04:37.402Z,0.00
2022-07-27T01:05:37.982Z,0.00
2022-07-27T01:06:38.370Z,0.00
2022-07-27T01:07:37.356Z,0.00
2022-07-27T01:08:37.348Z,0.00
2022-07-27T01:09:37.332Z,0.00
2022-07-27T01:10:37.350Z,0.00
2022-07-27T01:11:37.310Z,0.00
2022-07-27T01:12:37.299Z,0.00
2022-07-27T01:13:37.288Z,0.00
2022-07-27T01:14:37.277Z,0.00
2022-07-27T01:15:37.390Z,0.00
2022-07-27T01:16:37.322Z,0.00
2022-07-27T01:17:37.245Z,0.00
2022-07-27T01:18:37.233Z,0.00
2022-07-27T01:19:37.223Z,0.00
2022-07-27T01:20:37.212Z,0.00
2022-07-27T01:21:37.202Z,0.00
2022-07-27T01:22:37.197Z,0.00
2022-07-27T01:23:37.180Z,0.00
2022-07-27T01:24:37.168Z,0.00
2022-07-27T01:25:37.157Z,0.00
2022-07-27T01:26:37.146Z,0.00
2022-07-27T01:27:37.135Z,0.00
2022-07-27T01:28:37.130Z,0.00
2022-07-27T01:29:37.113Z,0.00
2022-07-27T01:30:38.126Z,0.00
2022-07-27T01:31:37.228Z,0.00
2022-07-27T01:32:37.080Z,0.00
2022-07-27T01:33:37.072Z,0.00
2022-07-27T01:34:37.075Z,0.00
2022-07-27T01:35:37.050Z,0.00
2022-07-27T01:36:37.037Z,0.00
2022-07-27T01:37:37.027Z,0.00
2022-07-27T01:38:37.015Z,0.00
2022-07-27T01:39:37.005Z,0.00
2022-07-27T01:40:37.010Z,0.00
2022-07-27T01:41:36.983Z,0.00
2022-07-27T01:42:36.972Z,0.00
2022-07-27T01:43:36.960Z,0.00
2022-07-27T01:44:36.950Z,0.00
2022-07-27T01:45:36.939Z,0.00
2022-07-27T01:46:37.082Z,0.00
2022-07-27T01:47:36.916Z,0.00
2022-07-27T01:48:36.939Z,0.00
2022-07-27T01:49:36.894Z,0.00
2022-07-27T01:50:36.883Z,0.00
2022-07-27T01:51:36.872Z,0.00
2022-07-27T01:52:36.869Z,0.00
2022-07-27T01:53:36.851Z,0.00
2022-07-27T01:54:36.843Z,0.00
2022-07-27T01:55:38.678Z,0.00
2022-07-27T01:56:36.819Z,0.00
2022-07-27T01:57:36.809Z,0.00
2022-07-27T01:58:36.809Z,0.00
2022-07-27T01:59:36.786Z,0.00
2022-07-27T02:00:36.775Z,0.00
2022-07-27T02:01:36.819Z,0.00
2022-07-27T02:02:36.752Z,0.00
2022-07-27T02:03:36.745Z,0.00
2022-07-27T02:04:36.767Z,0.00
2022-07-27T02:05:36.902Z,0.00
2022-07-27T02:06:36.715Z,0.00
2022-07-27T02:07:36.698Z,0.00
2022-07-27T02:08:36.687Z,0.00
2022-07-27T02:09:36.677Z,0.00
2022-07-27T02:10:36.681Z,0.00
2022-07-27T02:11:36.656Z,0.00
2022-07-27T02:12:36.650Z,0.00
2022-07-27T02:13:36.633Z,0.00
2022-07-27T02:14:36.623Z,0.00
2022-07-27T02:15:44.490Z,0.00
2022-07-27T02:16:37.664Z,0.00
2022-07-27T02:17:36.590Z,0.00
2022-07-27T02:18:37.039Z,0.00
2022-07-27T02:19:36.568Z,0.00
2022-07-27T02:20:36.557Z,0.00
2022-07-27T02:21:36.546Z,0.00
2022-07-27T02:22:36.540Z,0.00
2022-07-27T02:23:36.523Z,0.00
2022-07-27T02:24:36.512Z,0.00
2022-07-27T02:25:36.500Z,0.00
2022-07-27T02:26:36.490Z,0.00
2022-07-27T02:27:36.480Z,0.00
2022-07-27T02:28:36.477Z,0.00
2022-07-27T02:29:36.457Z,0.00
2022-07-27T02:30:36.447Z,0.00
2022-07-27T02:31:36.435Z,0.00
2022-07-27T02:32:36.506Z,0.00
2022-07-27T02:33:36.414Z,0.00
2022-07-27T02:34:36.409Z,0.00
2022-07-27T02:35:36.392Z,0.00
2022-07-27T02:36:36.381Z,0.00
2022-07-27T02:37:36.370Z,0.00
2022-07-27T02:38:36.361Z,0.00
2022-07-27T02:39:36.349Z,0.00
2022-07-27T02:40:36.358Z,0.00
2022-07-27T02:41:36.331Z,0.00
2022-07-27T02:42:36.316Z,0.00
2022-07-27T02:43:36.316Z,0.00
2022-07-27T02:44:36.293Z,0.00
2022-07-27T02:45:36.284Z,0.00
2022-07-27T02:46:36.391Z,0.00
2022-07-27T02:47:36.260Z,0.00
2022-07-27T02:48:36.323Z,0.00
2022-07-27T02:49:36.240Z,0.00
2022-07-27T02:50:36.228Z,0.00
2022-07-27T02:51:36.218Z,0.00
2022-07-27T02:52:36.211Z,0.00
2022-07-27T02:53:36.195Z,0.00
2022-07-27T02:54:36.184Z,0.00
2022-07-27T02:55:36.179Z,4.00
2022-07-27T02:56:36.162Z,4.00
2022-07-27T02:57:36.164Z,4.00
2022-07-27T02:58:36.169Z,4.00
2022-07-27T02:59:36.133Z,0.00
2022-07-27T03:00:36.118Z,4.00
2022-07-27T03:01:36.130Z,4.00
2022-07-27T03:02:36.097Z,4.00
2022-07-27T03:03:36.943Z,4.00
2022-07-27T03:04:36.116Z,4.00
2022-07-27T03:05:36.063Z,4.00
2022-07-27T03:06:36.055Z,8.00
2022-07-27T03:07:36.042Z,4.00
2022-07-27T03:08:36.031Z,8.00
2022-07-27T03:09:36.020Z,8.00
2022-07-27T03:10:36.032Z,8.00
2022-07-27T03:11:35.999Z,8.00
2022-07-27T03:12:35.986Z,8.00
2022-07-27T03:13:35.976Z,12.00
2022-07-27T03:14:35.965Z,12.00
2022-07-27T03:15:35.993Z,12.00
2022-07-27T03:16:35.949Z,16.00
2022-07-27T03:17:35.936Z,16.00
2022-07-27T03:18:35.925Z,20.00
2022-07-27T03:19:35.913Z,16.00
2022-07-27T03:20:35.900Z,20.00
2022-07-27T03:21:35.889Z,20.00
2022-07-27T03:22:35.894Z,24.00
2022-07-27T03:23:35.873Z,24.00
2022-07-27T03:24:35.856Z,28.00
2022-07-27T03:25:35.848Z,28.00
2022-07-27T03:26:35.836Z,32.00
2022-07-27T03:27:35.825Z,32.00
2022-07-27T03:28:35.820Z,36.00
2022-07-27T03:29:35.804Z,36.00
2022-07-27T03:30:35.868Z,40.00
2022-07-27T03:31:35.782Z,40.00
2022-07-27T03:32:35.772Z,40.00
2022-07-27T03:33:35.760Z,44.00
2022-07-27T03:34:35.777Z,44.00
2022-07-27T03:35:35.740Z,48.00
2022-07-27T03:36:35.726Z,48.00
2022-07-27T03:37:35.715Z,48.00
2022-07-27T03:38:35.704Z,52.00
2022-07-27T03:39:35.698Z,56.00
2022-07-27T03:40:35.689Z,56.00
2022-07-27T03:41:35.674Z,60.00
2022-07-27T03:42:35.660Z,60.00
2022-07-27T03:43:35.649Z,60.00
2022-07-27T03:44:35.639Z,60.00
2022-07-27T03:45:35.675Z,64.00
2022-07-27T03:46:35.637Z,68.00
2022-07-27T03:47:35.607Z,68.00
2022-07-27T03:48:35.616Z,72.00
2022-07-27T03:49:35.715Z,72.00
2022-07-27T03:50:35.573Z,72.00
2022-07-27T03:51:35.562Z,76.00
2022-07-27T03:52:35.558Z,80.00
2022-07-27T03:53:35.541Z,80.00
2022-07-27T03:54:35.529Z,84.00
2022-07-27T03:55:35.518Z,92.00
2022-07-27T03:56:35.510Z,100.00
2022-07-27T03:57:35.497Z,112.00
2022-07-27T03:58:35.492Z,116.00
2022-07-27T03:59:35.476Z,116.00
2022-07-27T04:00:35.463Z,112.00
2022-07-27T04:01:35.584Z,116.00
2022-07-27T04:02:35.564Z,120.00
2022-07-27T04:03:35.432Z,132.00
2022-07-27T04:04:35.425Z,144.00
2022-07-27T04:05:35.409Z,152.00
2022-07-27T04:06:35.406Z,156.00
2022-07-27T04:07:35.391Z,156.00
2022-07-27T04:08:35.377Z,152.00
2022-07-27T04:09:35.367Z,148.00
2022-07-27T04:10:35.399Z,148.00
2022-07-27T04:11:35.346Z,144.00
2022-07-27T04:12:35.339Z,148.00
2022-07-27T04:13:38.202Z,148.00
2022-07-27T04:14:35.311Z,152.00
2022-07-27T04:15:35.300Z,152.00
2022-07-27T04:16:36.371Z,152.00
2022-07-27T04:17:54.636Z,152.00
2022-07-27T04:18:36.267Z,148.00
2022-07-27T04:19:35.257Z,144.00
2022-07-27T04:20:35.245Z,140.00
2022-07-27T04:21:35.243Z,136.00
2022-07-27T04:22:35.245Z,136.00
2022-07-27T04:23:38.294Z,136.00
2022-07-27T04:24:35.203Z,136.00
2022-07-27T04:25:35.192Z,140.00
2022-07-27T04:26:35.184Z,144.00
2022-07-27T04:27:35.169Z,152.00
2022-07-27T04:28:35.174Z,156.00
2022-07-27T04:29:35.149Z,164.00
2022-07-27T04:31:50.925Z,164.00
2022-07-27T04:32:50.905Z,168.00
2022-07-27T04:33:50.900Z,172.00
2022-07-27T04:34:50.883Z,172.00
2022-07-27T04:35:50.873Z,176.00
2022-07-27T04:36:50.862Z,180.00
2022-07-27T04:37:58.356Z,196.00
2022-07-27T04:38:51.846Z,212.00
2022-07-27T04:39:50.832Z,224.00
2022-07-27T04:40:53.812Z,236.00
2022-07-27T04:41:51.807Z,236.00
2022-07-27T04:42:50.797Z,236.00
2022-07-27T04:43:50.786Z,244.00
2022-07-27T04:44:50.803Z,252.00
2022-07-27T04:45:50.811Z,272.00
2022-07-27T04:46:50.754Z,292.00
2022-07-27T04:47:50.744Z,304.00
2022-07-27T04:48:50.861Z,312.00
2022-07-27T04:49:50.720Z,308.00
2022-07-27T04:50:50.716Z,304.00
2022-07-27T04:51:50.698Z,304.00
2022-07-27T04:52:50.688Z,312.00
2022-07-27T04:53:54.015Z,336.00
2022-07-27T04:54:51.665Z,360.00
2022-07-27T04:55:50.658Z,364.00
2022-07-27T04:56:50.666Z,360.00
2022-07-27T04:57:50.633Z,356.00
2022-07-27T04:58:50.622Z,360.00
2022-07-27T04:59:50.616Z,364.00
2022-07-27T05:00:50.663Z,372.00
2022-07-27T05:01:50.656Z,392.00
2022-07-27T05:02:50.584Z,412.00
2022-07-27T05:03:50.795Z,424.00
2022-07-27T05:04:50.556Z,424.00
2022-07-27T05:05:50.619Z,420.00
2022-07-27T05:06:50.536Z,420.00
2022-07-27T05:07:50.523Z,420.00
2022-07-27T05:08:50.544Z,420.00
2022-07-27T05:09:50.504Z,420.00
2022-07-27T05:10:50.496Z,408.00
2022-07-27T05:11:50.706Z,420.00
2022-07-27T05:12:50.469Z,420.00
2022-07-27T05:13:50.459Z,428.00
2022-07-27T05:14:50.469Z,420.00
2022-07-27T05:15:54.634Z,416.00
2022-07-27T05:16:51.521Z,420.00
2022-07-27T05:17:50.416Z,428.00
2022-07-27T05:18:50.404Z,432.00
2022-07-27T05:19:50.394Z,444.00
2022-07-27T05:20:50.503Z,452.00
2022-07-27T05:21:50.371Z,452.00
2022-07-27T05:22:50.362Z,460.00
2022-07-27T05:23:50.350Z,456.00
2022-07-27T05:24:50.338Z,460.00
2022-07-27T05:25:50.328Z,464.00
2022-07-27T05:26:50.322Z,464.00
2022-07-27T05:27:53.966Z,464.00
2022-07-27T05:28:50.298Z,464.00
2022-07-27T05:29:50.284Z,468.00
2022-07-27T05:30:50.273Z,476.00
2022-07-27T05:31:50.303Z,480.00
2022-07-27T05:32:50.266Z,488.00
2022-07-27T05:33:54.622Z,492.00
2022-07-27T05:34:51.227Z,496.00
2022-07-27T05:35:50.219Z,496.00
2022-07-27T05:36:50.210Z,500.00
2022-07-27T05:37:50.199Z,496.00
2022-07-27T05:38:50.191Z,488.00
2022-07-27T05:39:50.174Z,488.00
2022-07-27T05:40:50.163Z,480.00
2022-07-27T05:41:50.151Z,484.00
2022-07-27T05:42:50.145Z,496.00
2022-07-27T05:43:50.129Z,512.00
2022-07-27T05:44:50.126Z,524.00
2022-07-27T05:45:50.196Z,532.00
2022-07-27T05:46:50.098Z,528.00
2022-07-27T05:47:50.087Z,516.00
2022-07-27T05:48:50.201Z,508.00
2022-07-27T05:49:50.063Z,500.00
2022-07-27T05:50:50.059Z,484.00
2022-07-27T05:51:50.042Z,472.00
2022-07-27T05:52:50.042Z,464.00
2022-07-27T05:53:50.022Z,448.00
2022-07-27T05:54:50.010Z,424.00
2022-07-27T05:55:59.396Z,400.00
2022-07-27T05:56:50.995Z,384.00
2022-07-27T05:57:49.976Z,368.00
2022-07-27T05:58:49.966Z,344.00
2022-07-27T05:59:49.955Z,332.00
2022-07-27T06:00:49.999Z,340.00
2022-07-27T06:01:49.933Z,352.00
2022-07-27T06:02:49.930Z,372.00
2022-07-27T06:03:50.031Z,400.00
2022-07-27T06:04:49.901Z,444.00
2022-07-27T06:05:49.889Z,496.00
2022-07-27T06:06:49.879Z,548.00
2022-07-27T06:07:50.062Z,588.00
2022-07-27T06:08:49.863Z,620.00
2022-07-27T06:09:49.845Z,672.00
2022-07-27T06:10:49.837Z,712.00
2022-07-27T06:11:49.827Z,736.00
2022-07-27T06:12:49.813Z,756.00
2022-07-27T06:13:49.802Z,756.00
2022-07-27T06:14:50.950Z,768.00
2022-07-27T06:15:49.779Z,804.00
2022-07-27T06:16:49.881Z,812.00
2022-07-27T06:17:49.758Z,792.00
2022-07-27T06:18:49.753Z,788.00
2022-07-27T06:19:49.736Z,804.00
2022-07-27T06:20:49.748Z,784.00
2022-07-27T06:21:53.559Z,780.00
2022-07-27T06:22:49.705Z,780.00
2022-07-27T06:23:49.693Z,788.00
2022-07-27T06:24:49.680Z,804.00
2022-07-27T06:25:49.670Z,808.00
2022-07-27T06:26:49.666Z,812.00
2022-07-27T06:27:49.651Z,808.00
2022-07-27T06:28:49.638Z,816.00
2022-07-27T06:29:49.626Z,820.00
2022-07-27T06:30:49.617Z,824.00
2022-07-27T06:31:49.685Z,832.00
2022-07-27T06:32:49.599Z,844.00
2022-07-27T06:33:51.013Z,856.00
2022-07-27T06:34:49.585Z,900.00
2022-07-27T06:35:49.563Z,928.00
2022-07-27T06:36:49.550Z,944.00
2022-07-27T06:37:49.542Z,960.00
2022-07-27T06:38:49.535Z,984.00
2022-07-27T06:39:49.520Z,988.00
2022-07-27T06:40:49.506Z,996.00
2022-07-27T06:41:49.495Z,996.00
2022-07-27T06:42:49.491Z,1008.00
2022-07-27T06:43:49.473Z,1016.00
2022-07-27T06:44:49.495Z,1016.00
2022-07-27T06:45:49.451Z,1024.00
2022-07-27T06:46:49.515Z,1024.00
2022-07-27T06:47:50.205Z,1024.00
2022-07-27T06:48:49.469Z,1024.00
2022-07-27T06:49:49.415Z,952.00
2022-07-27T06:50:49.420Z,892.00
2022-07-27T06:51:49.386Z,952.00
2022-07-27T06:52:49.377Z,1012.00
2022-07-27T06:53:49.363Z,984.00
2022-07-27T06:54:49.358Z,968.00
2022-07-27T06:55:49.384Z,984.00
2022-07-27T06:56:49.335Z,1000.00
2022-07-27T06:57:49.321Z,1004.00
2022-07-27T06:58:49.313Z,1000.00
2022-07-27T06:59:49.340Z,1016.00
2022-07-27T07:00:49.415Z,1028.00
2022-07-27T07:01:49.347Z,1028.00
2022-07-27T07:02:49.270Z,1032.00
2022-07-27T07:03:49.342Z,1036.00
2022-07-27T07:04:49.242Z,1044.00
2022-07-27T07:05:49.232Z,1044.00
2022-07-27T07:06:49.221Z,1056.00
2022-07-27T07:07:49.210Z,1068.00
2022-07-27T07:08:49.213Z,1100.00
2022-07-27T07:09:49.187Z,1096.00
2022-07-27T07:10:49.177Z,1092.00
2022-07-27T07:11:49.166Z,1080.00
2022-07-27T07:12:49.156Z,1064.00
2022-07-27T07:13:49.163Z,1044.00
2022-07-27T07:14:49.148Z,1028.00
2022-07-27T07:15:49.175Z,1056.00
2022-07-27T07:16:49.196Z,1104.00
2022-07-27T07:17:49.099Z,1120.00
2022-07-27T07:18:52.446Z,1136.00
2022-07-27T07:19:49.078Z,1052.00
2022-07-27T07:20:49.098Z,912.00
2022-07-27T07:21:49.056Z,840.00
2022-07-27T07:22:49.048Z,916.00
2022-07-27T07:23:49.035Z,1020.00
2022-07-27T07:24:49.023Z,1040.00
2022-07-27T07:25:49.012Z,992.00
2022-07-27T07:26:49.016Z,956.00
2022-07-27T07:27:48.990Z,860.00
2022-07-27T07:28:48.981Z,792.00
2022-07-27T07:29:48.968Z,824.00
2022-07-27T07:30:48.958Z,896.00
2022-07-27T07:31:49.027Z,940.00
2022-07-27T07:32:48.965Z,980.00
2022-07-27T07:33:48.925Z,1032.00
2022-07-27T07:34:48.921Z,1076.00
2022-07-27T07:36:12.588Z,1108.00
2022-07-27T07:36:49.891Z,1136.00
2022-07-27T07:37:50.634Z,1160.00
2022-07-27T07:38:48.876Z,1152.00
2022-07-27T07:39:48.858Z,1192.00
2022-07-27T07:40:48.848Z,1208.00
2022-07-27T07:41:48.839Z,1224.00
2022-07-27T07:42:48.826Z,1248.00
2022-07-27T07:43:48.829Z,1224.00
2022-07-27T07:44:48.811Z,1232.00
2022-07-27T07:45:50.293Z,1240.00
2022-07-27T07:46:48.876Z,1244.00
2022-07-27T07:47:48.770Z,1364.00
2022-07-27T07:48:48.872Z,1416.00
2022-07-27T07:49:48.779Z,1428.00
2022-07-27T07:50:51.827Z,1424.00
2022-07-27T07:51:48.737Z,1420.00
2022-07-27T07:52:48.717Z,1368.00
2022-07-27T07:53:48.705Z,1392.00
2022-07-27T07:54:48.695Z,1396.00
2022-07-27T07:55:48.684Z,1368.00
2022-07-27T07:56:48.678Z,1368.00
2022-07-27T07:57:48.662Z,1268.00
2022-07-27T07:58:48.649Z,1220.00
2022-07-27T07:59:48.645Z,1212.00
2022-07-27T08:00:48.630Z,1204.00
2022-07-27T08:01:48.711Z,1284.00
2022-07-27T08:02:48.682Z,1408.00
2022-07-27T08:03:51.119Z,1440.00
2022-07-27T08:04:48.584Z,1492.00
2022-07-27T08:05:48.574Z,1592.00
2022-07-27T08:06:48.563Z,1576.00
2022-07-27T08:07:48.550Z,1592.00
2022-07-27T08:08:48.547Z,1420.00
2022-07-27T08:09:48.529Z,1244.00
2022-07-27T08:10:48.517Z,1352.00
2022-07-27T08:11:48.507Z,1568.00
2022-07-27T08:12:48.496Z,1740.00
2022-07-27T08:13:48.484Z,1444.00
2022-07-27T08:14:48.480Z,1212.00
2022-07-27T08:15:48.498Z,1368.00
2022-07-27T08:16:49.030Z,1472.00
2022-07-27T08:17:48.441Z,1420.00
2022-07-27T08:18:48.432Z,1348.00
2022-07-27T08:19:48.419Z,1400.00
2022-07-27T08:20:48.421Z,1440.00
2022-07-27T08:21:48.399Z,1452.00
2022-07-27T08:22:48.385Z,1416.00
2022-07-27T08:23:48.376Z,1524.00
2022-07-27T08:24:48.364Z,1528.00
2022-07-27T08:25:48.353Z,1476.00
2022-07-27T08:26:48.364Z,1360.00
2022-07-27T08:27:48.356Z,1272.00
2022-07-27T08:28:48.321Z,1332.00
2022-07-27T08:29:48.308Z,1332.00
2022-07-27T08:30:48.297Z,1276.00
2022-07-27T08:31:51.383Z,1276.00
2022-07-27T08:32:48.284Z,1316.00
2022-07-27T08:33:48.265Z,1348.00
2022-07-27T08:34:48.257Z,1212.00
2022-07-27T08:35:48.247Z,1100.00
2022-07-27T08:36:48.233Z,1012.00
2022-07-27T08:37:48.239Z,964.00
2022-07-27T08:38:48.233Z,972.00
2022-07-27T08:40:49.751Z,804.00
2022-07-27T08:41:48.177Z,664.00
2022-07-27T08:42:49.228Z,576.00
2022-07-27T08:43:48.156Z,596.00
2022-07-27T08:44:48.151Z,688.00
2022-07-27T08:45:48.134Z,704.00
2022-07-27T08:46:48.231Z,884.00
2022-07-27T08:47:48.111Z,1136.00
2022-07-27T08:48:48.153Z,1412.00
2022-07-27T08:49:49.703Z,1532.00
2022-07-27T08:50:48.088Z,1564.00
2022-07-27T08:51:48.067Z,1524.00
2022-07-27T08:52:48.058Z,1500.00
2022-07-27T08:53:52.647Z,1580.00
2022-07-27T08:54:49.036Z,1828.00
2022-07-27T08:55:48.024Z,1836.00
2022-07-27T08:56:48.019Z,1656.00
2022-07-27T08:57:48.002Z,1400.00
2022-07-27T08:58:47.992Z,1212.00
2022-07-27T08:59:47.981Z,1104.00
2022-07-27T09:00:47.970Z,1244.00
2022-07-27T09:01:48.001Z,1472.00
2022-07-27T09:02:48.069Z,1660.00
2022-07-27T09:03:48.081Z,1864.00
2022-07-27T09:04:47.926Z,1940.00
2022-07-27T09:05:47.918Z,1908.00
2022-07-27T09:06:53.021Z,1856.00
2022-07-27T09:07:48.912Z,1676.00
2022-07-27T09:08:53.158Z,1592.00
2022-07-27T09:09:48.869Z,1720.00
2022-07-27T09:10:47.859Z,1776.00
2022-07-27T09:11:47.855Z,1492.00
2022-07-27T09:12:47.841Z,1460.00
2022-07-27T09:13:47.841Z,1548.00
2022-07-27T09:14:52.882Z,1828.00
2022-07-27T09:16:16.252Z,2092.00
2022-07-27T09:17:46.574Z,2124.00
2022-07-27T09:17:49.836Z,1864.00
2022-07-27T09:18:47.814Z,1656.00
2022-07-27T09:19:47.765Z,1752.00
2022-07-27T09:20:47.752Z,1788.00
2022-07-27T09:21:47.738Z,1908.00
2022-07-27T09:22:47.730Z,1976.00
2022-07-27T09:23:48.307Z,2040.00
2022-07-27T09:24:48.084Z,1968.00
2022-07-27T09:26:03.218Z,1764.00
2022-07-27T09:26:48.683Z,1660.00
2022-07-27T09:27:47.673Z,1736.00
2022-07-27T09:28:47.661Z,1860.00
2022-07-27T09:29:47.650Z,1920.00
2022-07-27T09:30:47.678Z,2216.00
2022-07-27T09:31:47.784Z,2336.00
2022-07-27T09:32:52.500Z,2420.00
2022-07-27T09:33:48.605Z,2112.00
2022-07-27T09:34:47.596Z,2272.00
2022-07-27T09:35:47.584Z,2236.00
2022-07-27T09:36:47.577Z,2176.00
2022-07-27T09:37:47.569Z,1816.00
2022-07-27T09:38:53.047Z,1724.00
2022-07-27T09:39:48.539Z,1556.00
2022-07-27T09:40:47.538Z,1392.00
2022-07-27T09:41:47.613Z,1228.00
2022-07-27T09:44:53.665Z,936.00
2022-07-27T09:45:51.224Z,996.00
2022-07-27T09:46:47.541Z,1148.00
2022-07-27T09:47:47.454Z,1192.00
2022-07-27T09:48:47.542Z,1160.00
2022-07-27T09:49:47.445Z,1028.00
2022-07-27T09:51:01.347Z,920.00
2022-07-27T09:52:03.995Z,844.00
2022-07-27T09:52:48.401Z,824.00
2022-07-27T09:53:47.387Z,872.00
2022-07-27T09:54:47.689Z,876.00
2022-07-27T09:55:47.372Z,848.00
2022-07-27T09:56:47.354Z,824.00
2022-07-27T09:57:47.345Z,800.00
2022-07-27T09:58:47.333Z,756.00
2022-07-27T09:59:47.322Z,700.00
2022-07-27T10:00:47.312Z,652.00
2022-07-27T10:01:52.614Z,616.00
2022-07-27T10:02:48.289Z,608.00
2022-07-27T10:03:47.278Z,596.00
2022-07-27T10:04:47.322Z,608.00
2022-07-27T10:05:47.256Z,672.00
2022-07-27T10:07:01.721Z,708.00
2022-07-27T10:07:48.239Z,752.00
2022-07-27T10:08:47.223Z,748.00
2022-07-27T10:09:47.212Z,816.00
2022-07-27T10:10:47.202Z,904.00
2022-07-27T10:11:47.192Z,988.00
2022-07-27T10:12:53.711Z,1152.00
2022-07-27T10:13:48.183Z,1224.00
2022-07-27T10:14:47.158Z,1124.00
2022-07-27T10:15:47.224Z,1064.00
2022-07-27T10:16:47.140Z,1032.00
2022-07-27T10:17:47.126Z,1072.00
2022-07-27T10:18:55.444Z,1120.00
2022-07-27T10:19:48.110Z,1188.00
2022-07-27T10:20:47.563Z,1316.00
2022-07-27T10:21:47.081Z,1504.00
2022-07-27T10:22:47.070Z,1800.00
2022-07-27T10:23:47.060Z,2020.00
2022-07-27T10:24:52.950Z,2124.00
2022-07-27T10:25:48.066Z,2244.00
2022-07-27T10:26:47.026Z,2156.00
2022-07-27T10:27:47.019Z,2112.00
2022-07-27T10:28:47.007Z,2048.00
2022-07-27T10:29:46.999Z,2028.00
2022-07-27T10:30:52.180Z,2216.00
2022-07-27T10:31:47.993Z,2528.00
2022-07-27T10:32:46.961Z,2736.00
2022-07-27T10:33:46.951Z,2892.00
2022-07-27T10:34:46.940Z,3092.00
2022-07-27T10:35:46.927Z,3336.00
2022-07-27T10:36:46.917Z,3636.00
2022-07-27T10:37:46.911Z,3572.00
2022-07-27T10:38:46.897Z,3464.00
2022-07-27T10:39:46.912Z,3396.00
2022-07-27T10:40:46.874Z,3184.00
2022-07-27T10:41:46.863Z,2936.00
2022-07-27T10:42:52.028Z,2616.00
2022-07-27T10:43:47.846Z,2456.00
2022-07-27T10:44:46.837Z,2580.00
2022-07-27T10:45:55.365Z,2544.00
2022-07-27T10:46:47.855Z,2728.00
2022-07-27T10:47:46.797Z,2832.00
2022-07-27T10:48:49.027Z,3144.00
2022-07-27T10:49:46.780Z,3420.00
2022-07-27T10:50:46.764Z,3668.00
2022-07-27T10:51:46.757Z,3932.00
2022-07-27T10:52:46.743Z,3964.00
2022-07-27T10:54:11.648Z,4224.00
2022-07-27T10:54:52.663Z,4252.00
2022-07-27T10:55:47.707Z,4020.00
2022-07-27T10:56:46.889Z,4060.00
2022-07-27T10:57:46.688Z,3580.00
2022-07-27T10:58:46.677Z,3400.00
2022-07-27T11:00:53.122Z,2636.00
2022-07-27T11:01:47.759Z,2244.00
2022-07-27T11:02:46.633Z,2340.00
2022-07-27T11:03:46.622Z,3324.00
2022-07-27T11:04:46.645Z,3296.00
2022-07-27T11:06:00.093Z,3444.00
2022-07-27T11:07:22.513Z,3688.00
2022-07-27T11:08:13.509Z,3072.00
2022-07-27T11:08:52.248Z,2124.00
2022-07-27T11:10:04.727Z,1532.00
2022-07-27T11:10:47.545Z,2168.00
2022-07-27T11:11:46.536Z,2388.00
2022-07-27T11:12:46.542Z,3008.00
2022-07-27T11:13:46.514Z,3684.00
2022-07-27T11:14:46.505Z,3804.00
2022-07-27T11:15:46.491Z,3900.00
2022-07-27T11:16:55.608Z,3216.00
2022-07-27T11:17:56.759Z,3600.00
2022-07-27T11:18:47.841Z,3764.00
2022-07-27T11:19:46.448Z,3724.00
2022-07-27T11:20:46.442Z,3668.00
2022-07-27T11:21:46.427Z,3112.00
2022-07-27T11:23:26.691Z,3260.00
2022-07-27T11:23:51.578Z,3588.00
2022-07-27T11:24:46.394Z,3788.00
2022-07-27T11:25:46.383Z,3324.00
2022-07-27T11:26:46.373Z,2436.00
2022-07-27T11:27:46.368Z,1848.00
2022-07-27T11:28:46.350Z,1704.00
2022-07-27T11:29:46.347Z,2112.00
2022-07-27T11:30:46.398Z,2884.00
2022-07-27T11:31:55.953Z,2156.00
2022-07-27T11:32:47.305Z,1580.00
2022-07-27T11:33:46.305Z,1288.00
2022-07-27T11:34:46.285Z,1276.00
2022-07-27T11:35:46.300Z,1312.00
2022-07-27T11:36:46.263Z,1412.00
2022-07-27T11:37:46.251Z,1744.00
2022-07-27T11:38:46.242Z,1988.00
2022-07-27T11:40:05.079Z,2464.00
2022-07-27T11:40:56.828Z,2924.00
2022-07-27T11:42:08.970Z,2620.00
2022-07-27T11:42:47.203Z,2324.00
2022-07-27T11:43:46.187Z,2132.00
2022-07-27T11:44:46.174Z,2096.00
2022-07-27T11:45:46.232Z,1668.00
2022-07-27T11:46:46.171Z,1244.00
2022-07-27T11:47:46.143Z,1060.00
2022-07-27T11:49:05.609Z,944.00
2022-07-27T11:49:47.274Z,864.00
2022-07-27T11:50:46.110Z,852.00
2022-07-27T11:51:46.099Z,888.00
2022-07-27T11:52:46.096Z,960.00
2022-07-27T11:53:46.079Z,1144.00
2022-07-27T11:54:46.067Z,1504.00
2022-07-27T11:55:46.056Z,1992.00
2022-07-27T11:56:46.045Z,2740.00
2022-07-27T11:57:46.034Z,3084.00
2022-07-27T11:58:46.029Z,3104.00
2022-07-27T11:59:46.027Z,2968.00
2022-07-27T12:00:46.007Z,2940.00
2022-07-27T12:01:45.991Z,2900.00
2022-07-27T12:02:46.017Z,2628.00
2022-07-27T12:03:47.424Z,2544.00
2022-07-27T12:04:46.045Z,2452.00
2022-07-27T12:05:45.947Z,2696.00
2022-07-27T12:06:45.938Z,2732.00
2022-07-27T12:07:45.925Z,2576.00
2022-07-27T12:08:45.915Z,2360.00
2022-07-27T12:09:45.904Z,2180.00
2022-07-27T12:10:45.898Z,1784.00
2022-07-27T12:11:45.883Z,1528.00
2022-07-27T12:12:45.870Z,1264.00
2022-07-27T12:13:45.861Z,1096.00
2022-07-27T12:14:46.040Z,1000.00
2022-07-27T12:15:46.875Z,996.00
2022-07-27T12:16:45.903Z,1088.00
2022-07-27T12:17:45.817Z,1184.00
2022-07-27T12:18:45.807Z,1468.00
2022-07-27T12:19:45.794Z,1524.00
2022-07-27T12:20:45.785Z,1564.00
2022-07-27T12:21:48.479Z,1812.00
2022-07-27T12:22:45.769Z,2332.00
2022-07-27T12:23:45.755Z,3632.00
2022-07-27T12:24:45.742Z,3036.00
2022-07-27T12:25:45.728Z,3364.00
2022-07-27T12:26:45.718Z,2840.00
2022-07-27T12:27:45.708Z,2288.00
2022-07-27T12:28:45.727Z,1908.00
2022-07-27T12:29:45.685Z,1688.00
2022-07-27T12:30:45.832Z,1540.00
2022-07-27T12:31:45.664Z,1384.00
2022-07-27T12:32:45.652Z,1312.00
2022-07-27T12:33:45.644Z,1296.00
2022-07-27T12:34:45.637Z,1312.00
2022-07-27T12:35:46.386Z,1368.00
2022-07-27T12:36:45.609Z,1556.00
2022-07-27T12:37:45.599Z,2308.00